LFOH

Le Havre Octeville Airport

Airport
ICAO code
LFOH
IATA Code
LEH
Summary
ICAO Region
EUR
ICAO Territory
Location

, Haute-Normandie

Serving
Le Havre
Elevation
313 ft
Coordinates
49° 32' 2" N , 0° 5' 17" E
Metar
LFOH 221530Z AUTO 27031G44KT 9999 BKN022/// BKN027/// BKN052/// 08/05 Q0984 TEMPO VRB20G35KT 1200 TSRAGS BKN012 BKN020CB

Runways

Designator Length Width Surface Rops
5/23 2300 40 ASP No/No

Airport map

Aerial View

SKYbrary Partners:

Safety knowledge contributed by: